sensor_id;sensor_type;location;lat;lon;timestamp;P1;durP1;ratioP1;P2;durP2;ratioP2
66270;SDS011;53063;39.614;8.814;2022-11-18T00:00:52;6.88;;;1.63;;
66270;SDS011;53063;39.614;8.814;2022-11-18T00:03:17;13.10;;;2.00;;
66270;SDS011;53063;39.614;8.814;2022-11-18T00:05:53;6.60;;;1.20;;
66270;SDS011;53063;39.614;8.814;2022-11-18T00:08:21;8.30;;;1.30;;
66270;SDS011;53063;39.614;8.814;2022-11-18T00:10:47;8.23;;;1.95;;
66270;SDS011;53063;39.614;8.814;2022-11-18T00:13:14;10.98;;;1.83;;
66270;SDS011;53063;39.614;8.814;2022-11-18T00:15:59;10.07;;;1.30;;
66270;SDS011;53063;39.614;8.814;2022-11-18T00:18:30;9.82;;;1.45;;
66270;SDS011;53063;39.614;8.814;2022-11-18T00:21:14;6.70;;;1.52;;
66270;SDS011;53063;39.614;8.814;2022-11-18T00:23:40;15.10;;;4.13;;
66270;SDS011;53063;39.614;8.814;2022-11-18T00:26:07;12.35;;;2.65;;
66270;SDS011;53063;39.614;8.814;2022-11-18T00:28:35;8.18;;;1.30;;
66270;SDS011;53063;39.614;8.814;2022-11-18T00:31:11;9.52;;;1.67;;
66270;SDS011;53063;39.614;8.814;2022-11-18T00:33:38;6.15;;;1.35;;
66270;SDS011;53063;39.614;8.814;2022-11-18T00:36:05;13.30;;;1.70;;
66270;SDS011;53063;39.614;8.814;2022-11-18T00:38:33;7.72;;;1.48;;
66270;SDS011;53063;39.614;8.814;2022-11-18T00:41:09;7.97;;;1.67;;
66270;SDS011;53063;39.614;8.814;2022-11-18T00:43:37;8.57;;;1.10;;
66270;SDS011;53063;39.614;8.814;2022-11-18T00:46:04;7.47;;;2.00;;
66270;SDS011;53063;39.614;8.814;2022-11-18T00:48:32;9.48;;;1.45;;
66270;SDS011;53063;39.614;8.814;2022-11-18T00:51:05;5.53;;;1.20;;
66270;SDS011;53063;39.614;8.814;2022-11-18T00:53:33;6.82;;;1.23;;
66270;SDS011;53063;39.614;8.814;2022-11-18T00:55:59;7.60;;;1.30;;
66270;SDS011;53063;39.614;8.814;2022-11-18T00:58:24;13.77;;;1.60;;
66270;SDS011;53063;39.614;8.814;2022-11-18T01:00:51;10.23;;;1.75;;
66270;SDS011;53063;39.614;8.814;2022-11-18T01:03:17;15.15;;;2.78;;
66270;SDS011;53063;39.614;8.814;2022-11-18T01:05:44;8.95;;;1.80;;
66270;SDS011;53063;39.614;8.814;2022-11-18T01:08:10;7.20;;;1.27;;
66270;SDS011;53063;39.614;8.814;2022-11-18T01:10:37;7.57;;;1.85;;
66270;SDS011;53063;39.614;8.814;2022-11-18T01:13:05;7.75;;;1.30;;
66270;SDS011;53063;39.614;8.814;2022-11-18T01:18:25;4.68;;;1.40;;
66270;SDS011;53063;39.614;8.814;2022-11-18T01:20:53;3.27;;;0.83;;
66270;SDS011;53063;39.614;8.814;2022-11-18T01:23:24;10.52;;;1.70;;
66270;SDS011;53063;39.614;8.814;2022-11-18T01:25:50;3.75;;;1.20;;
66270;SDS011;53063;39.614;8.814;2022-11-18T01:28:16;3.20;;;0.80;;
66270;SDS011;53063;39.614;8.814;2022-11-18T01:30:43;1.30;;;0.50;;
66270;SDS011;53063;39.614;8.814;2022-11-18T01:33:10;10.38;;;1.33;;
66270;SDS011;53063;39.614;8.814;2022-11-18T01:35:40;3.90;;;1.23;;
66270;SDS011;53063;39.614;8.814;2022-11-18T01:38:08;6.22;;;1.25;;
66270;SDS011;53063;39.614;8.814;2022-11-18T01:40:36;3.95;;;0.60;;
66270;SDS011;53063;39.614;8.814;2022-11-18T01:43:10;6.72;;;0.82;;
66270;SDS011;53063;39.614;8.814;2022-11-18T01:45:39;7.03;;;1.17;;
66270;SDS011;53063;39.614;8.814;2022-11-18T01:48:17;16.15;;;1.75;;
66270;SDS011;53063;39.614;8.814;2022-11-18T01:50:51;2.47;;;0.80;;
66270;SDS011;53063;39.614;8.814;2022-11-18T01:53:42;7.05;;;1.40;;
66270;SDS011;53063;39.614;8.814;2022-11-18T01:56:30;4.90;;;0.73;;
66270;SDS011;53063;39.614;8.814;2022-11-18T01:59:02;4.25;;;1.00;;
66270;SDS011;53063;39.614;8.814;2022-11-18T02:01:32;11.85;;;1.63;;
66270;SDS011;53063;39.614;8.814;2022-11-18T02:03:57;8.40;;;1.50;;
66270;SDS011;53063;39.614;8.814;2022-11-18T02:06:24;9.27;;;1.67;;
66270;SDS011;53063;39.614;8.814;2022-11-18T02:08:50;10.30;;;1.70;;
66270;SDS011;53063;39.614;8.814;2022-11-18T02:11:16;12.60;;;1.73;;
66270;SDS011;53063;39.614;8.814;2022-11-18T02:14:02;12.77;;;2.17;;
66270;SDS011;53063;39.614;8.814;2022-11-18T02:30:19;12.88;;;1.83;;
66270;SDS011;53063;39.614;8.814;2022-11-18T02:35:38;13.43;;;2.88;;
66270;SDS011;53063;39.614;8.814;2022-11-18T02:38:15;15.95;;;2.65;;
66270;SDS011;53063;39.614;8.814;2022-11-18T02:41:07;11.27;;;2.25;;
66270;SDS011;53063;39.614;8.814;2022-11-18T02:43:39;13.05;;;2.50;;
66270;SDS011;53063;39.614;8.814;2022-11-18T02:46:12;12.23;;;2.53;;
66270;SDS011;53063;39.614;8.814;2022-11-18T02:48:43;17.75;;;1.98;;
66270;SDS011;53063;39.614;8.814;2022-11-18T02:51:12;17.52;;;3.15;;
66270;SDS011;53063;39.614;8.814;2022-11-18T02:53:42;12.50;;;2.08;;
66270;SDS011;53063;39.614;8.814;2022-11-18T02:56:10;9.93;;;1.42;;
66270;SDS011;53063;39.614;8.814;2022-11-18T02:58:37;9.70;;;1.90;;
66270;SDS011;53063;39.614;8.814;2022-11-18T03:01:03;18.50;;;2.90;;
66270;SDS011;53063;39.614;8.814;2022-11-18T03:03:30;12.95;;;1.77;;
66270;SDS011;53063;39.614;8.814;2022-11-18T03:08:38;6.18;;;1.20;;
66270;SDS011;53063;39.614;8.814;2022-11-18T03:11:14;8.00;;;1.85;;
66270;SDS011;53063;39.614;8.814;2022-11-18T03:16:47;11.75;;;2.05;;
66270;SDS011;53063;39.614;8.814;2022-11-18T03:19:22;8.73;;;1.55;;
66270;SDS011;53063;39.614;8.814;2022-11-18T03:21:57;6.00;;;1.55;;
66270;SDS011;53063;39.614;8.814;2022-11-18T03:24:37;11.45;;;1.70;;
66270;SDS011;53063;39.614;8.814;2022-11-18T03:27:11;14.50;;;2.33;;
66270;SDS011;53063;39.614;8.814;2022-11-18T03:29:52;11.50;;;2.95;;
66270;SDS011;53063;39.614;8.814;2022-11-18T03:32:40;16.83;;;2.92;;
66270;SDS011;53063;39.614;8.814;2022-11-18T03:35:31;15.00;;;2.55;;
66270;SDS011;53063;39.614;8.814;2022-11-18T03:38:02;12.43;;;2.25;;
66270;SDS011;53063;39.614;8.814;2022-11-18T03:40:32;14.48;;;2.38;;
66270;SDS011;53063;39.614;8.814;2022-11-18T03:43:04;8.85;;;1.67;;
66270;SDS011;53063;39.614;8.814;2022-11-18T03:45:39;9.63;;;2.10;;
66270;SDS011;53063;39.614;8.814;2022-11-18T03:48:11;13.30;;;1.88;;
66270;SDS011;53063;39.614;8.814;2022-11-18T03:50:51;14.68;;;2.42;;
66270;SDS011;53063;39.614;8.814;2022-11-18T03:53:33;11.20;;;2.15;;
66270;SDS011;53063;39.614;8.814;2022-11-18T03:56:17;12.70;;;2.03;;
66270;SDS011;53063;39.614;8.814;2022-11-18T03:58:48;13.88;;;2.03;;
66270;SDS011;53063;39.614;8.814;2022-11-18T04:01:17;10.82;;;2.63;;
66270;SDS011;53063;39.614;8.814;2022-11-18T04:03:49;12.07;;;1.88;;
66270;SDS011;53063;39.614;8.814;2022-11-18T04:06:19;16.23;;;2.17;;
66270;SDS011;53063;39.614;8.814;2022-11-18T04:08:54;14.40;;;2.03;;
66270;SDS011;53063;39.614;8.814;2022-11-18T04:11:25;7.68;;;2.20;;
66270;SDS011;53063;39.614;8.814;2022-11-18T04:14:18;11.50;;;2.03;;
66270;SDS011;53063;39.614;8.814;2022-11-18T04:16:48;17.33;;;2.22;;
66270;SDS011;53063;39.614;8.814;2022-11-18T04:19:16;11.27;;;1.70;;
66270;SDS011;53063;39.614;8.814;2022-11-18T04:21:42;16.10;;;2.20;;
66270;SDS011;53063;39.614;8.814;2022-11-18T04:24:07;22.27;;;2.88;;
66270;SDS011;53063;39.614;8.814;2022-11-18T04:26:33;10.68;;;2.53;;
66270;SDS011;53063;39.614;8.814;2022-11-18T04:28:59;13.85;;;2.60;;
66270;SDS011;53063;39.614;8.814;2022-11-18T04:31:25;13.65;;;1.70;;
66270;SDS011;53063;39.614;8.814;2022-11-18T04:33:51;17.45;;;2.45;;
66270;SDS011;53063;39.614;8.814;2022-11-18T04:36:17;10.82;;;1.80;;
66270;SDS011;53063;39.614;8.814;2022-11-18T04:38:44;20.27;;;1.92;;
66270;SDS011;53063;39.614;8.814;2022-11-18T04:41:10;11.05;;;2.10;;
66270;SDS011;53063;39.614;8.814;2022-11-18T04:43:36;20.65;;;2.90;;
66270;SDS011;53063;39.614;8.814;2022-11-18T04:46:02;17.75;;;2.47;;
66270;SDS011;53063;39.614;8.814;2022-11-18T04:48:28;11.18;;;2.25;;
66270;SDS011;53063;39.614;8.814;2022-11-18T04:50:57;15.55;;;1.85;;
66270;SDS011;53063;39.614;8.814;2022-11-18T04:55:52;18.55;;;2.00;;
66270;SDS011;53063;39.614;8.814;2022-11-18T04:58:18;19.63;;;2.50;;
66270;SDS011;53063;39.614;8.814;2022-11-18T05:00:44;13.90;;;1.90;;
66270;SDS011;53063;39.614;8.814;2022-11-18T05:03:10;12.55;;;2.20;;
66270;SDS011;53063;39.614;8.814;2022-11-18T05:05:36;13.90;;;2.17;;
66270;SDS011;53063;39.614;8.814;2022-11-18T05:08:01;12.55;;;2.00;;
66270;SDS011;53063;39.614;8.814;2022-11-18T05:10:27;16.95;;;1.90;;
66270;SDS011;53063;39.614;8.814;2022-11-18T05:12:53;11.13;;;1.67;;
66270;SDS011;53063;39.614;8.814;2022-11-18T05:15:20;18.17;;;1.73;;
66270;SDS011;53063;39.614;8.814;2022-11-18T05:17:49;17.48;;;1.83;;
66270;SDS011;53063;39.614;8.814;2022-11-18T05:20:15;13.73;;;1.98;;
66270;SDS011;53063;39.614;8.814;2022-11-18T05:22:41;11.88;;;1.77;;
66270;SDS011;53063;39.614;8.814;2022-11-18T05:25:08;13.35;;;2.20;;
66270;SDS011;53063;39.614;8.814;2022-11-18T05:27:34;15.93;;;2.58;;
66270;SDS011;53063;39.614;8.814;2022-11-18T05:30:00;8.15;;;2.00;;
66270;SDS011;53063;39.614;8.814;2022-11-18T05:32:26;13.88;;;2.03;;
66270;SDS011;53063;39.614;8.814;2022-11-18T05:34:52;17.65;;;2.35;;
66270;SDS011;53063;39.614;8.814;2022-11-18T05:37:18;14.93;;;3.45;;
66270;SDS011;53063;39.614;8.814;2022-11-18T05:39:44;14.10;;;1.67;;
66270;SDS011;53063;39.614;8.814;2022-11-18T05:42:09;17.55;;;2.13;;
66270;SDS011;53063;39.614;8.814;2022-11-18T05:44:54;13.80;;;2.50;;
66270;SDS011;53063;39.614;8.814;2022-11-18T05:47:20;18.52;;;2.30;;
66270;SDS011;53063;39.614;8.814;2022-11-18T05:49:49;20.40;;;2.40;;
66270;SDS011;53063;39.614;8.814;2022-11-18T05:52:15;10.88;;;2.20;;
66270;SDS011;53063;39.614;8.814;2022-11-18T05:54:41;18.63;;;2.78;;
66270;SDS011;53063;39.614;8.814;2022-11-18T05:57:12;17.00;;;2.03;;
66270;SDS011;53063;39.614;8.814;2022-11-18T05:59:38;14.63;;;2.20;;
66270;SDS011;53063;39.614;8.814;2022-11-18T06:02:05;12.80;;;2.25;;
66270;SDS011;53063;39.614;8.814;2022-11-18T06:10:07;11.00;;;2.10;;
66270;SDS011;53063;39.614;8.814;2022-11-18T06:12:38;14.93;;;1.92;;
66270;SDS011;53063;39.614;8.814;2022-11-18T06:15:17;12.73;;;1.42;;
66270;SDS011;53063;39.614;8.814;2022-11-18T06:18:06;14.40;;;2.00;;
66270;SDS011;53063;39.614;8.814;2022-11-18T06:20:35;8.82;;;2.75;;
66270;SDS011;53063;39.614;8.814;2022-11-18T06:23:03;16.73;;;2.58;;
66270;SDS011;53063;39.614;8.814;2022-11-18T06:25:29;13.50;;;1.98;;
66270;SDS011;53063;39.614;8.814;2022-11-18T06:27:56;15.25;;;2.72;;
66270;SDS011;53063;39.614;8.814;2022-11-18T06:30:24;17.48;;;2.35;;
66270;SDS011;53063;39.614;8.814;2022-11-18T06:32:50;10.38;;;2.38;;
66270;SDS011;53063;39.614;8.814;2022-11-18T06:35:16;19.38;;;2.70;;
66270;SDS011;53063;39.614;8.814;2022-11-18T06:37:42;12.60;;;1.98;;
66270;SDS011;53063;39.614;8.814;2022-11-18T06:40:09;15.50;;;3.28;;
66270;SDS011;53063;39.614;8.814;2022-11-18T06:42:35;18.55;;;2.90;;
66270;SDS011;53063;39.614;8.814;2022-11-18T06:45:20;7.80;;;1.67;;
66270;SDS011;53063;39.614;8.814;2022-11-18T06:47:45;17.10;;;2.45;;
66270;SDS011;53063;39.614;8.814;2022-11-18T06:50:11;9.88;;;2.35;;
66270;SDS011;53063;39.614;8.814;2022-11-18T06:52:37;12.77;;;2.20;;
66270;SDS011;53063;39.614;8.814;2022-11-18T06:55:03;19.40;;;2.65;;
66270;SDS011;53063;39.614;8.814;2022-11-18T06:57:32;15.05;;;2.45;;
66270;SDS011;53063;39.614;8.814;2022-11-18T06:59:59;17.23;;;3.58;;
66270;SDS011;53063;39.614;8.814;2022-11-18T07:02:25;17.08;;;2.13;;
66270;SDS011;53063;39.614;8.814;2022-11-18T07:04:51;17.67;;;2.03;;
66270;SDS011;53063;39.614;8.814;2022-11-18T07:07:16;17.52;;;2.72;;
66270;SDS011;53063;39.614;8.814;2022-11-18T07:09:42;12.52;;;2.38;;
66270;SDS011;53063;39.614;8.814;2022-11-18T07:12:09;15.07;;;2.20;;
66270;SDS011;53063;39.614;8.814;2022-11-18T07:14:35;10.15;;;1.55;;
66270;SDS011;53063;39.614;8.814;2022-11-18T07:17:01;13.95;;;2.38;;
66270;SDS011;53063;39.614;8.814;2022-11-18T07:19:26;15.52;;;2.22;;
66270;SDS011;53063;39.614;8.814;2022-11-18T07:21:52;17.20;;;2.45;;
66270;SDS011;53063;39.614;8.814;2022-11-18T07:24:18;18.02;;;3.08;;
66270;SDS011;53063;39.614;8.814;2022-11-18T07:26:44;16.77;;;2.63;;
66270;SDS011;53063;39.614;8.814;2022-11-18T07:29:10;13.05;;;1.75;;
66270;SDS011;53063;39.614;8.814;2022-11-18T07:31:36;10.52;;;2.10;;
66270;SDS011;53063;39.614;8.814;2022-11-18T07:34:03;23.30;;;3.10;;
66270;SDS011;53063;39.614;8.814;2022-11-18T07:36:30;14.77;;;2.17;;
66270;SDS011;53063;39.614;8.814;2022-11-18T07:38:59;18.00;;;2.20;;
66270;SDS011;53063;39.614;8.814;2022-11-18T07:41:26;12.07;;;2.25;;
66270;SDS011;53063;39.614;8.814;2022-11-18T07:43:54;15.70;;;1.77;;
66270;SDS011;53063;39.614;8.814;2022-11-18T07:46:22;10.75;;;1.50;;
66270;SDS011;53063;39.614;8.814;2022-11-18T07:48:55;11.02;;;1.45;;
66270;SDS011;53063;39.614;8.814;2022-11-18T07:51:23;12.15;;;2.20;;
66270;SDS011;53063;39.614;8.814;2022-11-18T07:53:51;13.65;;;2.05;;
66270;SDS011;53063;39.614;8.814;2022-11-18T07:56:17;14.07;;;2.08;;
66270;SDS011;53063;39.614;8.814;2022-11-18T07:58:44;9.40;;;1.50;;
66270;SDS011;53063;39.614;8.814;2022-11-18T08:01:16;8.32;;;1.83;;
66270;SDS011;53063;39.614;8.814;2022-11-18T08:03:44;13.57;;;1.45;;
66270;SDS011;53063;39.614;8.814;2022-11-18T08:06:12;10.68;;;2.08;;
66270;SDS011;53063;39.614;8.814;2022-11-18T08:08:39;14.23;;;2.13;;
66270;SDS011;53063;39.614;8.814;2022-11-18T08:11:07;20.52;;;3.95;;
66270;SDS011;53063;39.614;8.814;2022-11-18T08:13:35;15.45;;;2.15;;
66270;SDS011;53063;39.614;8.814;2022-11-18T08:16:02;6.07;;;1.95;;
66270;SDS011;53063;39.614;8.814;2022-11-18T08:18:30;8.35;;;1.70;;
66270;SDS011;53063;39.614;8.814;2022-11-18T08:21:00;8.45;;;1.40;;
66270;SDS011;53063;39.614;8.814;2022-11-18T08:23:27;10.68;;;1.65;;
66270;SDS011;53063;39.614;8.814;2022-11-18T08:25:59;6.75;;;1.33;;
66270;SDS011;53063;39.614;8.814;2022-11-18T08:28:33;10.95;;;1.30;;
66270;SDS011;53063;39.614;8.814;2022-11-18T08:31:00;7.25;;;1.52;;
66270;SDS011;53063;39.614;8.814;2022-11-18T08:33:38;7.45;;;1.00;;
66270;SDS011;53063;39.614;8.814;2022-11-18T08:36:06;7.38;;;1.40;;
66270;SDS011;53063;39.614;8.814;2022-11-18T08:38:33;7.05;;;1.17;;
66270;SDS011;53063;39.614;8.814;2022-11-18T08:40:59;5.53;;;1.17;;
66270;SDS011;53063;39.614;8.814;2022-11-18T08:43:25;7.85;;;1.08;;
66270;SDS011;53063;39.614;8.814;2022-11-18T08:45:51;6.40;;;1.40;;
66270;SDS011;53063;39.614;8.814;2022-11-18T08:48:17;6.20;;;1.27;;
66270;SDS011;53063;39.614;8.814;2022-11-18T08:50:43;5.97;;;1.10;;
66270;SDS011;53063;39.614;8.814;2022-11-18T08:53:09;4.82;;;1.20;;
66270;SDS011;53063;39.614;8.814;2022-11-18T08:55:35;5.47;;;0.98;;
66270;SDS011;53063;39.614;8.814;2022-11-18T08:58:01;7.68;;;0.95;;
66270;SDS011;53063;39.614;8.814;2022-11-18T09:00:27;5.97;;;1.13;;
66270;SDS011;53063;39.614;8.814;2022-11-18T09:02:53;5.20;;;1.15;;
66270;SDS011;53063;39.614;8.814;2022-11-18T09:05:19;6.38;;;1.35;;
66270;SDS011;53063;39.614;8.814;2022-11-18T09:07:44;5.68;;;1.00;;
66270;SDS011;53063;39.614;8.814;2022-11-18T09:10:10;9.75;;;1.35;;
66270;SDS011;53063;39.614;8.814;2022-11-18T09:12:36;7.45;;;1.27;;
66270;SDS011;53063;39.614;8.814;2022-11-18T09:15:02;6.03;;;1.23;;
66270;SDS011;53063;39.614;8.814;2022-11-18T09:17:28;6.75;;;1.50;;
66270;SDS011;53063;39.614;8.814;2022-11-18T09:19:54;3.28;;;1.23;;
66270;SDS011;53063;39.614;8.814;2022-11-18T09:22:20;6.72;;;1.50;;
66270;SDS011;53063;39.614;8.814;2022-11-18T09:24:46;7.10;;;1.45;;
66270;SDS011;53063;39.614;8.814;2022-11-18T09:27:12;7.93;;;1.63;;
66270;SDS011;53063;39.614;8.814;2022-11-18T09:29:38;7.18;;;2.20;;
66270;SDS011;53063;39.614;8.814;2022-11-18T09:32:04;5.07;;;1.10;;
66270;SDS011;53063;39.614;8.814;2022-11-18T09:34:30;4.40;;;1.63;;
66270;SDS011;53063;39.614;8.814;2022-11-18T09:36:59;6.22;;;1.20;;
66270;SDS011;53063;39.614;8.814;2022-11-18T09:39:27;4.97;;;1.15;;
66270;SDS011;53063;39.614;8.814;2022-11-18T09:42:27;4.05;;;1.27;;
66270;SDS011;53063;39.614;8.814;2022-11-18T09:45:16;7.03;;;1.15;;
66270;SDS011;53063;39.614;8.814;2022-11-18T09:47:48;5.40;;;0.98;;
66270;SDS011;53063;39.614;8.814;2022-11-18T09:50:23;3.88;;;0.75;;
66270;SDS011;53063;39.614;8.814;2022-11-18T09:55:47;12.52;;;1.10;;
66270;SDS011;53063;39.614;8.814;2022-11-18T09:58:16;5.28;;;0.88;;
66270;SDS011;53063;39.614;8.814;2022-11-18T10:00:46;7.22;;;1.10;;
66270;SDS011;53063;39.614;8.814;2022-11-18T10:03:21;10.32;;;1.50;;
66270;SDS011;53063;39.614;8.814;2022-11-18T10:05:57;7.45;;;1.60;;
66270;SDS011;53063;39.614;8.814;2022-11-18T10:08:44;3.53;;;1.00;;
66270;SDS011;53063;39.614;8.814;2022-11-18T10:11:22;5.10;;;1.25;;
66270;SDS011;53063;39.614;8.814;2022-11-18T10:24:35;3.38;;;0.70;;
66270;SDS011;53063;39.614;8.814;2022-11-18T10:27:07;4.35;;;0.70;;
66270;SDS011;53063;39.614;8.814;2022-11-18T10:29:36;6.53;;;1.23;;
66270;SDS011;53063;39.614;8.814;2022-11-18T10:32:07;6.80;;;1.23;;
66270;SDS011;53063;39.614;8.814;2022-11-18T10:34:50;8.23;;;0.93;;
66270;SDS011;53063;39.614;8.814;2022-11-18T10:37:22;3.58;;;1.02;;
66270;SDS011;53063;39.614;8.814;2022-11-18T10:40:01;8.40;;;1.83;;
66270;SDS011;53063;39.614;8.814;2022-11-18T10:42:38;8.40;;;1.10;;
66270;SDS011;53063;39.614;8.814;2022-11-18T10:45:16;4.93;;;1.00;;
66270;SDS011;53063;39.614;8.814;2022-11-18T10:47:56;5.50;;;1.13;;
66270;SDS011;53063;39.614;8.814;2022-11-18T10:52:54;5.38;;;0.82;;
66270;SDS011;53063;39.614;8.814;2022-11-18T10:55:24;3.97;;;0.90;;
66270;SDS011;53063;39.614;8.814;2022-11-18T10:57:53;3.22;;;0.90;;
66270;SDS011;53063;39.614;8.814;2022-11-18T11:00:31;9.35;;;0.90;;
66270;SDS011;53063;39.614;8.814;2022-11-18T11:02:59;6.53;;;0.90;;
66270;SDS011;53063;39.614;8.814;2022-11-18T11:05:25;5.07;;;0.70;;
66270;SDS011;53063;39.614;8.814;2022-11-18T11:08:01;3.83;;;0.70;;
66270;SDS011;53063;39.614;8.814;2022-11-18T11:10:52;4.17;;;0.90;;
66270;SDS011;53063;39.614;8.814;2022-11-18T11:13:20;6.95;;;0.75;;
66270;SDS011;53063;39.614;8.814;2022-11-18T11:15:52;6.50;;;1.42;;
66270;SDS011;53063;39.614;8.814;2022-11-18T11:18:24;3.25;;;0.73;;
66270;SDS011;53063;39.614;8.814;2022-11-18T11:21:12;8.02;;;0.80;;
66270;SDS011;53063;39.614;8.814;2022-11-18T11:23:39;5.65;;;0.98;;
66270;SDS011;53063;39.614;8.814;2022-11-18T11:26:07;3.40;;;0.60;;
66270;SDS011;53063;39.614;8.814;2022-11-18T11:28:59;4.90;;;0.80;;
66270;SDS011;53063;39.614;8.814;2022-11-18T11:39:28;4.70;;;0.73;;
66270;SDS011;53063;39.614;8.814;2022-11-18T11:42:11;3.25;;;0.77;;
66270;SDS011;53063;39.614;8.814;2022-11-18T11:55:48;4.45;;;0.68;;
66270;SDS011;53063;39.614;8.814;2022-11-18T11:59:05;4.38;;;0.60;;
66270;SDS011;53063;39.614;8.814;2022-11-18T12:05:00;5.38;;;0.65;;
66270;SDS011;53063;39.614;8.814;2022-11-18T12:07:32;6.95;;;1.63;;
66270;SDS011;53063;39.614;8.814;2022-11-18T12:13:10;4.43;;;1.15;;
66270;SDS011;53063;39.614;8.814;2022-11-18T12:18:41;5.20;;;0.70;;
66270;SDS011;53063;39.614;8.814;2022-11-18T12:21:07;8.98;;;1.00;;
66270;SDS011;53063;39.614;8.814;2022-11-18T12:26:58;4.65;;;0.82;;
66270;SDS011;53063;39.614;8.814;2022-11-18T12:29:32;4.60;;;0.70;;
66270;SDS011;53063;39.614;8.814;2022-11-18T12:48:25;8.30;;;1.05;;
66270;SDS011;53063;39.614;8.814;2022-11-18T12:50:56;7.40;;;0.95;;
66270;SDS011;53063;39.614;8.814;2022-11-18T13:01:11;9.90;;;1.10;;
66270;SDS011;53063;39.614;8.814;2022-11-18T13:03:40;9.32;;;1.10;;
66270;SDS011;53063;39.614;8.814;2022-11-18T13:06:27;7.30;;;1.00;;
66270;SDS011;53063;39.614;8.814;2022-11-18T13:08:57;8.30;;;1.30;;
66270;SDS011;53063;39.614;8.814;2022-11-18T13:11:26;7.80;;;1.27;;
66270;SDS011;53063;39.614;8.814;2022-11-18T13:16:59;6.10;;;1.67;;
66270;SDS011;53063;39.614;8.814;2022-11-18T13:19:54;6.78;;;1.13;;
66270;SDS011;53063;39.614;8.814;2022-11-18T13:22:21;7.90;;;1.20;;
66270;SDS011;53063;39.614;8.814;2022-11-18T13:25:20;8.60;;;1.20;;
66270;SDS011;53063;39.614;8.814;2022-11-18T13:27:54;7.78;;;1.17;;
66270;SDS011;53063;39.614;8.814;2022-11-18T13:30:23;11.65;;;1.58;;
66270;SDS011;53063;39.614;8.814;2022-11-18T13:32:49;8.45;;;1.92;;
66270;SDS011;53063;39.614;8.814;2022-11-18T13:35:19;13.57;;;1.52;;
66270;SDS011;53063;39.614;8.814;2022-11-18T13:37:47;12.68;;;1.27;;
66270;SDS011;53063;39.614;8.814;2022-11-18T13:40:18;10.32;;;1.20;;
66270;SDS011;53063;39.614;8.814;2022-11-18T13:43:03;9.43;;;1.40;;
66270;SDS011;53063;39.614;8.814;2022-11-18T13:45:29;6.10;;;0.95;;
66270;SDS011;53063;39.614;8.814;2022-11-18T13:48:00;6.78;;;1.30;;
66270;SDS011;53063;39.614;8.814;2022-11-18T13:53:27;13.15;;;1.30;;
66270;SDS011;53063;39.614;8.814;2022-11-18T13:58:44;17.83;;;1.50;;
66270;SDS011;53063;39.614;8.814;2022-11-18T14:03:50;7.53;;;1.80;;
66270;SDS011;53063;39.614;8.814;2022-11-18T14:11:37;5.20;;;1.05;;
66270;SDS011;53063;39.614;8.814;2022-11-18T14:14:08;9.48;;;1.95;;
66270;SDS011;53063;39.614;8.814;2022-11-18T14:16:36;7.95;;;0.88;;
66270;SDS011;53063;39.614;8.814;2022-11-18T14:19:04;11.55;;;1.52;;
66270;SDS011;53063;39.614;8.814;2022-11-18T14:21:34;5.63;;;1.17;;
66270;SDS011;53063;39.614;8.814;2022-11-18T14:24:02;10.27;;;1.27;;
66270;SDS011;53063;39.614;8.814;2022-11-18T14:26:31;10.50;;;1.58;;
66270;SDS011;53063;39.614;8.814;2022-11-18T14:29:00;7.53;;;1.23;;
66270;SDS011;53063;39.614;8.814;2022-11-18T14:31:37;10.43;;;1.40;;
66270;SDS011;53063;39.614;8.814;2022-11-18T14:34:17;4.78;;;1.63;;
66270;SDS011;53063;39.614;8.814;2022-11-18T14:36:50;9.52;;;1.27;;
66270;SDS011;53063;39.614;8.814;2022-11-18T14:39:29;7.95;;;1.35;;
66270;SDS011;53063;39.614;8.814;2022-11-18T14:41:56;5.20;;;1.23;;
66270;SDS011;53063;39.614;8.814;2022-11-18T14:44:24;3.97;;;0.90;;
66270;SDS011;53063;39.614;8.814;2022-11-18T14:47:05;6.13;;;1.25;;
66270;SDS011;53063;39.614;8.814;2022-11-18T14:49:56;6.38;;;1.08;;
66270;SDS011;53063;39.614;8.814;2022-11-18T14:52:22;8.95;;;1.67;;
66270;SDS011;53063;39.614;8.814;2022-11-18T14:54:48;6.95;;;1.10;;
66270;SDS011;53063;39.614;8.814;2022-11-18T14:57:15;8.60;;;1.13;;
66270;SDS011;53063;39.614;8.814;2022-11-18T14:59:41;9.15;;;1.70;;
66270;SDS011;53063;39.614;8.814;2022-11-18T15:02:15;7.95;;;1.20;;
66270;SDS011;53063;39.614;8.814;2022-11-18T15:04:42;9.60;;;1.00;;
66270;SDS011;53063;39.614;8.814;2022-11-18T15:07:08;5.15;;;1.30;;
66270;SDS011;53063;39.614;8.814;2022-11-18T15:09:39;7.78;;;1.08;;
66270;SDS011;53063;39.614;8.814;2022-11-18T15:12:06;8.20;;;1.00;;
66270;SDS011;53063;39.614;8.814;2022-11-18T15:14:32;5.88;;;0.98;;
66270;SDS011;53063;39.614;8.814;2022-11-18T15:17:00;9.45;;;0.85;;
66270;SDS011;53063;39.614;8.814;2022-11-18T15:19:26;11.30;;;1.70;;
66270;SDS011;53063;39.614;8.814;2022-11-18T15:21:52;7.68;;;1.00;;
66270;SDS011;53063;39.614;8.814;2022-11-18T15:24:18;10.25;;;1.55;;
66270;SDS011;53063;39.614;8.814;2022-11-18T15:26:45;4.50;;;1.30;;
66270;SDS011;53063;39.614;8.814;2022-11-18T15:29:19;16.17;;;1.63;;
66270;SDS011;53063;39.614;8.814;2022-11-18T15:31:49;4.28;;;0.88;;
66270;SDS011;53063;39.614;8.814;2022-11-18T15:34:16;13.40;;;2.92;;
66270;SDS011;53063;39.614;8.814;2022-11-18T15:36:44;10.32;;;2.20;;
66270;SDS011;53063;39.614;8.814;2022-11-18T15:39:10;13.50;;;2.45;;
66270;SDS011;53063;39.614;8.814;2022-11-18T15:41:37;11.30;;;1.83;;
66270;SDS011;53063;39.614;8.814;2022-11-18T15:44:04;8.48;;;1.60;;
66270;SDS011;53063;39.614;8.814;2022-11-18T15:46:31;12.25;;;2.75;;
66270;SDS011;53063;39.614;8.814;2022-11-18T15:48:59;9.55;;;1.38;;
66270;SDS011;53063;39.614;8.814;2022-11-18T15:51:26;8.82;;;1.77;;
66270;SDS011;53063;39.614;8.814;2022-11-18T15:53:53;13.13;;;1.58;;
66270;SDS011;53063;39.614;8.814;2022-11-18T16:01:34;9.18;;;1.42;;
66270;SDS011;53063;39.614;8.814;2022-11-18T16:04:02;7.50;;;1.60;;
66270;SDS011;53063;39.614;8.814;2022-11-18T16:06:29;7.68;;;1.30;;
66270;SDS011;53063;39.614;8.814;2022-11-18T16:08:56;14.68;;;3.50;;
66270;SDS011;53063;39.614;8.814;2022-11-18T16:11:22;14.27;;;4.55;;
66270;SDS011;53063;39.614;8.814;2022-11-18T16:14:08;18.95;;;7.82;;
66270;SDS011;53063;39.614;8.814;2022-11-18T16:16:36;20.67;;;9.10;;
66270;SDS011;53063;39.614;8.814;2022-11-18T16:19:04;15.02;;;5.65;;
66270;SDS011;53063;39.614;8.814;2022-11-18T16:21:33;13.13;;;2.63;;
66270;SDS011;53063;39.614;8.814;2022-11-18T16:24:01;11.43;;;2.15;;
66270;SDS011;53063;39.614;8.814;2022-11-18T16:26:29;8.95;;;1.45;;
66270;SDS011;53063;39.614;8.814;2022-11-18T16:28:55;7.38;;;1.80;;
66270;SDS011;53063;39.614;8.814;2022-11-18T16:31:25;6.50;;;1.85;;
66270;SDS011;53063;39.614;8.814;2022-11-18T16:36:34;9.38;;;2.20;;
66270;SDS011;53063;39.614;8.814;2022-11-18T16:39:07;5.03;;;1.40;;
66270;SDS011;53063;39.614;8.814;2022-11-18T16:41:36;13.25;;;1.48;;
66270;SDS011;53063;39.614;8.814;2022-11-18T16:44:04;8.43;;;1.80;;
66270;SDS011;53063;39.614;8.814;2022-11-18T16:46:35;6.95;;;1.15;;
66270;SDS011;53063;39.614;8.814;2022-11-18T16:49:03;4.53;;;1.05;;
66270;SDS011;53063;39.614;8.814;2022-11-18T16:51:30;9.95;;;2.10;;
66270;SDS011;53063;39.614;8.814;2022-11-18T16:53:59;8.00;;;2.25;;
66270;SDS011;53063;39.614;8.814;2022-11-18T16:56:27;9.50;;;2.17;;
66270;SDS011;53063;39.614;8.814;2022-11-18T16:58:58;10.93;;;2.03;;
66270;SDS011;53063;39.614;8.814;2022-11-18T17:01:27;9.90;;;1.92;;
66270;SDS011;53063;39.614;8.814;2022-11-18T17:03:54;10.75;;;2.00;;
66270;SDS011;53063;39.614;8.814;2022-11-18T17:06:21;14.95;;;2.00;;
66270;SDS011;53063;39.614;8.814;2022-11-18T17:08:48;6.22;;;2.10;;